KSIK/SIK METAR and TAF weather

Enter ICAO airport designator
Station Type Date Time Source
KSIK METAR 2021/05/11 01:55 UTC NOAA

KSIK 110155Z AUTO 01003KT 10SM CLR 12/08 A3013 RMK AO2 TSNO


Station Type Date Time Source
KSIK Decoded METAR 2021/05/11 01:55 UTC NOAA

Station name not available
May 10, 2021 - 09:55 PM EDT / 2021.05.11 0155 UTC
Wind: from the N (010 degrees) at 3 MPH (3 KT):0
Visibility: 10 mile(s):0
Sky conditions: clear
Temperature: 53 F (12 C)
Dew Point: 46 F (8 C)
Relative Humidity: 76%
Pressure (altimeter): 30.13 in. Hg (1020 hPa)
ob: KSIK 110155Z AUTO 01003KT 10SM CLR 12/08 A3013 RMK AO2 TSNO
cycle: 2

Station Type Date Time Source
KSIK TAF UTC NOAA

Error!

Example: see airport list